createdAt,value
2018-12-21T00:00:40.083Z,3.93
2018-12-21T00:03:12.770Z,4.10
2018-12-21T00:05:42.419Z,4.33
2018-12-21T00:08:11.759Z,4.20
2018-12-21T00:10:41.239Z,4.07
2018-12-21T00:13:10.510Z,3.83
2018-12-21T00:15:40.394Z,4.13
2018-12-21T00:18:12.443Z,4.27
2018-12-21T00:20:41.774Z,3.60
2018-12-21T00:23:11.123Z,4.67
2018-12-21T00:25:40.453Z,4.10
2018-12-21T00:28:09.748Z,4.50
2018-12-21T00:30:38.946Z,4.23
2018-12-21T00:33:14.681Z,3.63
2018-12-21T00:35:49.898Z,4.10
2018-12-21T00:38:24.961Z,3.77
2018-12-21T00:40:59.505Z,4.20
2018-12-21T00:43:34.758Z,4.20
2018-12-21T00:46:11.948Z,4.57
2018-12-21T00:48:42.097Z,4.33
2018-12-21T00:51:13.128Z,4.43
2018-12-21T00:53:44.124Z,4.13
2018-12-21T00:56:13.534Z,3.77
2018-12-21T00:58:43.611Z,4.03
2018-12-21T01:01:13.856Z,3.83
2018-12-21T01:03:43.219Z,3.87
2018-12-21T01:06:12.538Z,3.70
2018-12-21T01:08:42.160Z,4.00
2018-12-21T01:14:05.137Z,3.57
2018-12-21T01:16:34.726Z,4.00
2018-12-21T01:19:04.027Z,3.40
2018-12-21T01:21:38.647Z,4.00
2018-12-21T01:24:06.137Z,3.67
2018-12-21T01:26:35.832Z,3.63
2018-12-21T01:29:07.255Z,3.73
2018-12-21T01:31:37.076Z,3.20
2018-12-21T01:34:06.330Z,3.30
2018-12-21T01:36:35.885Z,3.87
2018-12-21T01:39:07.190Z,3.50
2018-12-21T01:41:36.478Z,3.73
2018-12-21T01:44:06.572Z,3.40
2018-12-21T01:46:36.975Z,3.20
2018-12-21T01:49:06.434Z,3.57
2018-12-21T01:51:35.713Z,3.37
2018-12-21T01:54:05.072Z,3.53
2018-12-21T01:56:34.327Z,3.57
2018-12-21T01:59:03.578Z,3.60
2018-12-21T02:02:04.879Z,3.17
2018-12-21T02:04:35.569Z,3.40
2018-12-21T02:07:05.361Z,3.60
2018-12-21T02:09:34.642Z,3.00
2018-12-21T02:12:05.890Z,3.03
2018-12-21T02:14:36.037Z,2.70
2018-12-21T02:17:06.089Z,2.90
2018-12-21T02:19:36.313Z,2.80
2018-12-21T02:22:06.082Z,2.87
2018-12-21T02:24:35.420Z,2.70
2018-12-21T02:27:05.155Z,2.40
2018-12-21T02:29:35.059Z,2.90
2018-12-21T02:32:04.338Z,2.57
2018-12-21T02:34:33.703Z,2.67
2018-12-21T02:37:04.324Z,2.60
2018-12-21T02:39:33.662Z,2.20
2018-12-21T02:42:03.801Z,2.70
2018-12-21T02:44:33.151Z,2.60
2018-12-21T02:47:03.338Z,2.57
2018-12-21T02:49:32.807Z,2.53
2018-12-21T02:52:05.731Z,2.60
2018-12-21T02:54:34.021Z,2.83
2018-12-21T02:57:04.684Z,2.43
2018-12-21T02:59:34.123Z,2.53
2018-12-21T03:02:03.414Z,2.63
2018-12-21T03:04:32.785Z,2.70
2018-12-21T03:07:03.068Z,2.43
2018-12-21T03:09:33.138Z,3.13
2018-12-21T03:12:02.416Z,2.67
2018-12-21T03:14:31.757Z,2.60
2018-12-21T03:17:01.022Z,2.27
2018-12-21T03:19:30.299Z,2.10
2018-12-21T03:21:59.539Z,2.20
2018-12-21T03:24:28.828Z,2.17
2018-12-21T03:26:58.085Z,2.53
2018-12-21T03:29:27.345Z,1.90
2018-12-21T03:31:58.356Z,2.27
2018-12-21T03:34:27.647Z,2.23
2018-12-21T03:36:57.858Z,2.20
2018-12-21T03:39:28.162Z,2.40
2018-12-21T03:41:58.693Z,2.57
2018-12-21T03:44:27.984Z,2.10
2018-12-21T03:46:57.258Z,2.50
2018-12-21T03:49:26.840Z,2.23
2018-12-21T03:51:56.096Z,2.13
2018-12-21T03:54:25.369Z,2.27
2018-12-21T03:56:54.694Z,2.23
2018-12-21T03:59:24.399Z,2.10
2018-12-21T04:01:54.365Z,2.10
2018-12-21T04:04:23.653Z,2.30
2018-12-21T04:06:53.446Z,1.93
2018-12-21T04:09:22.735Z,2.43
2018-12-21T04:11:53.076Z,2.47
2018-12-21T04:14:22.827Z,2.40
2018-12-21T04:16:52.088Z,2.20
2018-12-21T04:19:21.342Z,2.47
2018-12-21T04:21:50.871Z,2.70
2018-12-21T04:24:20.130Z,2.30
2018-12-21T04:26:49.451Z,2.33
2018-12-21T04:29:19.629Z,2.33
2018-12-21T04:31:48.927Z,2.30
2018-12-21T04:34:19.249Z,2.30
2018-12-21T04:36:49.103Z,2.30
2018-12-21T04:39:18.353Z,2.43
2018-12-21T04:41:47.760Z,2.00
2018-12-21T04:44:17.037Z,2.40
2018-12-21T04:46:46.626Z,2.50
2018-12-21T04:49:15.873Z,2.47
2018-12-21T04:51:45.542Z,2.50
2018-12-21T04:54:15.938Z,2.57
2018-12-21T04:56:45.192Z,2.30
2018-12-21T04:59:14.742Z,2.20
2018-12-21T05:01:45.527Z,2.33
2018-12-21T05:04:19.661Z,1.70
2018-12-21T05:06:46.928Z,1.90
2018-12-21T05:09:16.231Z,1.80
2018-12-21T05:11:45.916Z,2.20
2018-12-21T05:14:16.005Z,2.30
2018-12-21T05:16:45.237Z,2.07
2018-12-21T05:19:14.831Z,2.10
2018-12-21T05:21:45.104Z,2.17
2018-12-21T05:24:14.360Z,2.40
2018-12-21T05:26:43.786Z,1.77
2018-12-21T05:29:13.490Z,2.20
2018-12-21T05:31:43.101Z,1.90
2018-12-21T05:34:12.841Z,1.87
2018-12-21T05:36:42.156Z,1.70
2018-12-21T05:39:12.409Z,1.90
2018-12-21T05:41:41.657Z,1.67
2018-12-21T05:44:11.387Z,2.10
2018-12-21T05:46:40.920Z,1.70
2018-12-21T05:49:11.100Z,1.60
2018-12-21T05:51:40.859Z,1.80
2018-12-21T05:54:10.139Z,1.73
2018-12-21T05:56:39.388Z,1.80
2018-12-21T05:59:09.234Z,1.90
2018-12-21T06:01:38.490Z,1.70
2018-12-21T06:04:07.838Z,2.40
2018-12-21T06:06:39.527Z,2.07
2018-12-21T06:09:10.300Z,4.53
2018-12-21T06:11:39.776Z,2.30
2018-12-21T06:14:09.171Z,2.13
2018-12-21T06:16:38.825Z,6.00
2018-12-21T06:19:09.704Z,2.70
2018-12-21T06:21:39.402Z,2.07
2018-12-21T06:24:08.649Z,1.80
2018-12-21T06:26:37.896Z,2.80
2018-12-21T06:29:08.048Z,2.37
2018-12-21T06:31:37.830Z,2.20
2018-12-21T06:34:07.472Z,2.40
2018-12-21T06:36:38.461Z,2.20
2018-12-21T06:39:09.085Z,3.07
2018-12-21T06:41:38.362Z,2.83
2018-12-21T06:44:07.815Z,2.23
2018-12-21T06:46:39.485Z,2.30
2018-12-21T06:49:08.849Z,3.20
2018-12-21T06:51:38.113Z,2.80
2018-12-21T06:54:07.661Z,2.60
2018-12-21T06:56:39.442Z,2.20
2018-12-21T06:59:08.742Z,2.23
2018-12-21T07:01:38.414Z,2.13
2018-12-21T07:04:07.673Z,2.23
2018-12-21T07:06:37.437Z,2.10
2018-12-21T07:09:08.284Z,1.53
2018-12-21T07:11:39.445Z,2.10
2018-12-21T07:14:08.782Z,1.97
2018-12-21T07:16:40.362Z,2.53
2018-12-21T07:19:11.356Z,2.20
2018-12-21T07:21:40.609Z,1.93
2018-12-21T07:24:09.822Z,2.07
2018-12-21T07:26:39.613Z,2.17
2018-12-21T07:29:09.301Z,2.13
2018-12-21T07:31:39.478Z,1.90
2018-12-21T07:34:09.439Z,2.07
2018-12-21T07:36:38.695Z,2.00
2018-12-21T07:39:09.385Z,1.70
2018-12-21T07:41:38.802Z,1.60
2018-12-21T07:44:08.081Z,2.50
2018-12-21T07:46:37.619Z,2.27
2018-12-21T07:49:08.453Z,2.00
2018-12-21T07:51:37.901Z,1.83
2018-12-21T07:54:07.940Z,1.70
2018-12-21T07:56:37.955Z,1.80
2018-12-21T07:59:07.200Z,1.83
2018-12-21T08:01:37.636Z,2.00
2018-12-21T08:04:08.093Z,1.73
2018-12-21T08:06:38.006Z,2.20
2018-12-21T08:09:09.119Z,2.20
2018-12-21T08:11:38.438Z,2.23
2018-12-21T08:14:08.643Z,2.47
2018-12-21T08:16:37.891Z,2.63
2018-12-21T08:19:07.909Z,2.60
2018-12-21T08:21:37.953Z,2.43
2018-12-21T08:24:07.253Z,2.80
2018-12-21T08:26:40.562Z,2.00
2018-12-21T08:29:11.034Z,2.50
2018-12-21T08:31:41.680Z,2.60
2018-12-21T08:34:10.955Z,2.60
2018-12-21T08:36:40.445Z,2.80
2018-12-21T08:39:12.809Z,3.83
2018-12-21T08:41:42.088Z,3.40
2018-12-21T08:44:12.407Z,2.57
2018-12-21T08:46:41.670Z,2.90
2018-12-21T08:49:12.407Z,2.70
2018-12-21T08:51:42.016Z,2.70
2018-12-21T08:54:11.266Z,2.50
2018-12-21T08:56:40.569Z,3.13
2018-12-21T08:59:09.863Z,2.90
2018-12-21T09:01:40.322Z,2.97
2018-12-21T09:04:12.825Z,2.63
2018-12-21T09:06:43.810Z,2.90
2018-12-21T09:09:13.125Z,2.57
2018-12-21T09:11:42.831Z,2.60
2018-12-21T09:14:30.708Z,3.00
2018-12-21T09:17:15.662Z,2.60
2018-12-21T09:19:45.646Z,2.73
2018-12-21T09:22:15.992Z,2.67
2018-12-21T09:24:48.614Z,2.87
2018-12-21T09:27:18.089Z,2.57
2018-12-21T09:29:48.197Z,2.40
2018-12-21T09:32:18.149Z,2.40
2018-12-21T09:34:47.707Z,2.23
2018-12-21T09:37:17.319Z,2.40
2018-12-21T09:39:46.871Z,2.30
2018-12-21T09:42:16.151Z,2.27
2018-12-21T09:44:52.527Z,2.20
2018-12-21T09:47:20.845Z,2.50
2018-12-21T09:49:57.640Z,2.43
2018-12-21T09:55:35.788Z,2.50
2018-12-21T09:58:05.662Z,2.63
2018-12-21T10:00:35.789Z,2.30
2018-12-21T10:03:05.518Z,2.87
2018-12-21T10:05:35.237Z,2.40
2018-12-21T10:08:04.496Z,2.43
2018-12-21T10:10:33.792Z,2.63
2018-12-21T10:13:03.408Z,2.30
2018-12-21T10:15:34.168Z,2.20
2018-12-21T10:18:03.387Z,1.67
2018-12-21T10:20:34.081Z,1.93
2018-12-21T10:23:05.940Z,2.20
2018-12-21T10:25:36.997Z,2.07
2018-12-21T10:28:06.848Z,2.27
2018-12-21T10:30:36.055Z,1.70
2018-12-21T10:33:06.541Z,4.93
2018-12-21T10:35:36.881Z,4.07
2018-12-21T10:38:07.789Z,2.70
2018-12-21T10:40:37.093Z,2.10
2018-12-21T10:43:06.333Z,1.93
2018-12-21T10:45:41.646Z,2.40
2018-12-21T10:48:07.656Z,2.13
2018-12-21T10:50:36.893Z,2.30
2018-12-21T10:53:06.218Z,1.80
2018-12-21T10:55:35.493Z,1.90
2018-12-21T10:58:04.913Z,1.63
2018-12-21T11:00:35.420Z,1.40
2018-12-21T11:03:04.994Z,1.27
2018-12-21T11:05:34.522Z,1.63
2018-12-21T11:08:03.829Z,1.80
2018-12-21T11:10:33.586Z,1.50
2018-12-21T11:13:03.618Z,1.40
2018-12-21T11:15:33.324Z,1.60
2018-12-21T11:18:03.826Z,1.50
2018-12-21T11:20:34.426Z,1.40
2018-12-21T11:23:03.992Z,1.57
2018-12-21T11:25:33.752Z,1.67
2018-12-21T11:28:03.098Z,1.70
2018-12-21T11:30:32.387Z,1.53
2018-12-21T11:33:01.655Z,1.70
2018-12-21T11:35:33.481Z,1.33
2018-12-21T11:38:03.349Z,1.80
2018-12-21T11:40:34.398Z,1.50
2018-12-21T11:43:03.845Z,1.50
2018-12-21T11:45:33.972Z,1.50
2018-12-21T11:48:09.517Z,1.60
2018-12-21T11:50:39.588Z,1.50
2018-12-21T11:53:08.876Z,1.60
2018-12-21T11:55:41.422Z,1.50
2018-12-21T11:58:11.238Z,1.80
2018-12-21T12:00:42.567Z,1.40
2018-12-21T12:03:13.967Z,1.40
2018-12-21T12:05:43.516Z,1.30
2018-12-21T12:08:13.621Z,1.50
2018-12-21T12:10:43.904Z,1.50
2018-12-21T12:13:13.563Z,1.40
2018-12-21T12:15:42.815Z,1.27
2018-12-21T12:18:17.177Z,1.50
2018-12-21T12:20:46.787Z,1.20
2018-12-21T12:23:16.452Z,1.50
2018-12-21T12:25:47.298Z,1.33
2018-12-21T12:28:16.868Z,1.60
2018-12-21T12:30:46.363Z,2.00
2018-12-21T12:33:17.196Z,1.60
2018-12-21T12:35:47.358Z,1.33
2018-12-21T12:38:18.657Z,2.00
2018-12-21T12:40:49.102Z,1.43
2018-12-21T12:43:19.373Z,1.30
2018-12-21T12:45:48.797Z,1.10
2018-12-21T12:48:19.134Z,2.90
2018-12-21T12:50:48.884Z,1.27
2018-12-21T12:53:20.645Z,1.27
2018-12-21T12:55:50.734Z,1.17
2018-12-21T12:58:20.252Z,0.77
2018-12-21T13:00:49.601Z,1.50
2018-12-21T13:03:20.756Z,1.20
2018-12-21T13:05:50.300Z,1.30
2018-12-21T13:08:19.837Z,1.57
2018-12-21T13:10:51.961Z,1.00
2018-12-21T13:13:25.356Z,1.07
2018-12-21T13:15:55.129Z,1.13
2018-12-21T13:18:25.822Z,1.20
2018-12-21T13:20:56.378Z,1.10
2018-12-21T13:23:27.281Z,0.90
2018-12-21T13:25:57.109Z,2.20
2018-12-21T13:28:26.487Z,0.87
2018-12-21T13:30:57.460Z,0.77
2018-12-21T13:33:27.032Z,1.20
2018-12-21T13:36:03.310Z,0.77
2018-12-21T13:38:35.343Z,0.80
2018-12-21T13:41:13.697Z,0.70
2018-12-21T13:43:44.368Z,0.60
2018-12-21T13:46:19.190Z,0.73
2018-12-21T13:48:53.569Z,1.03
2018-12-21T13:51:31.045Z,1.00
2018-12-21T13:54:01.751Z,0.70
2018-12-21T13:56:33.283Z,0.70
2018-12-21T13:59:02.625Z,0.83
2018-12-21T14:01:34.266Z,0.60
2018-12-21T14:04:05.885Z,0.80
2018-12-21T14:06:40.447Z,0.60
2018-12-21T14:09:23.344Z,0.50
2018-12-21T14:11:52.808Z,0.60
2018-12-21T14:14:30.448Z,0.80
2018-12-21T14:17:06.666Z,0.50
2018-12-21T14:19:39.574Z,0.40
2018-12-21T14:22:17.541Z,0.40
2018-12-21T14:24:52.310Z,1.20
2018-12-21T14:27:25.329Z,0.80
2018-12-21T14:30:07.211Z,0.43
2018-12-21T14:32:44.359Z,0.50
2018-12-21T14:35:29.515Z,1.00
2018-12-21T14:38:01.326Z,0.40
2018-12-21T14:40:38.410Z,0.90
2018-12-21T14:43:11.087Z,0.63
2018-12-21T14:45:41.865Z,0.40
2018-12-21T14:51:02.023Z,0.70
2018-12-21T14:53:38.340Z,0.70
2018-12-21T14:56:16.391Z,0.43
2018-12-21T15:01:44.931Z,0.70
2018-12-21T15:04:20.026Z,0.60
2018-12-21T15:06:51.752Z,0.30
2018-12-21T15:09:26.434Z,0.57
2018-12-21T15:11:57.029Z,0.97
2018-12-21T15:14:33.559Z,0.53
2018-12-21T15:17:04.377Z,0.50
2018-12-21T15:19:36.807Z,0.70
2018-12-21T15:22:10.553Z,0.90
2018-12-21T15:24:41.344Z,0.40
2018-12-21T15:27:12.507Z,0.60
2018-12-21T15:29:44.287Z,0.67
2018-12-21T15:32:31.034Z,0.13
2018-12-21T15:35:24.854Z,0.63
2018-12-21T15:38:07.367Z,0.50
2018-12-21T15:40:37.305Z,0.30
2018-12-21T15:43:09.464Z,0.40
2018-12-21T15:45:45.256Z,0.40
2018-12-21T15:48:17.971Z,0.70
2018-12-21T15:50:49.282Z,0.47
2018-12-21T15:53:19.165Z,0.60
2018-12-21T15:55:58.424Z,0.40
2018-12-21T15:58:36.076Z,0.77
2018-12-21T16:01:11.147Z,0.63
2018-12-21T16:04:20.364Z,1.53
2018-12-21T16:06:54.301Z,1.43
2018-12-21T16:09:24.049Z,0.97
2018-12-21T16:12:02.848Z,0.57
2018-12-21T16:14:34.616Z,0.43
2018-12-21T16:17:07.277Z,0.50
2018-12-21T16:19:43.446Z,0.70
2018-12-21T16:22:14.633Z,0.50
2018-12-21T16:24:44.276Z,0.50
2018-12-21T16:29:54.829Z,0.73
2018-12-21T16:32:34.092Z,0.90
2018-12-21T16:35:06.445Z,1.00
2018-12-21T16:37:36.077Z,0.90
2018-12-21T16:40:14.753Z,0.80
2018-12-21T16:42:46.927Z,0.90
2018-12-21T16:45:19.953Z,1.30
2018-12-21T16:47:51.767Z,0.83
2018-12-21T16:53:09.319Z,1.13
2018-12-21T16:55:39.754Z,1.30
2018-12-21T16:58:14.782Z,1.30
2018-12-21T17:00:58.485Z,1.10
2018-12-21T17:03:28.882Z,1.30
2018-12-21T17:06:00.864Z,1.60
2018-12-21T17:08:30.947Z,1.30
2018-12-21T17:13:38.913Z,1.30
2018-12-21T17:16:08.717Z,1.33
2018-12-21T17:18:43.412Z,1.50
2018-12-21T17:21:18.707Z,1.17
2018-12-21T17:23:55.814Z,1.30
2018-12-21T17:26:25.631Z,1.10
2018-12-21T17:29:02.895Z,1.20
2018-12-21T17:31:39.889Z,1.67
2018-12-21T17:34:11.527Z,1.00
2018-12-21T17:36:45.183Z,1.13
2018-12-21T17:39:17.489Z,1.03
2018-12-21T17:41:53.811Z,0.90
2018-12-21T17:44:28.374Z,1.07
2018-12-21T17:46:58.618Z,1.20
2018-12-21T17:49:32.094Z,1.30
2018-12-21T17:52:06.025Z,1.10
2018-12-21T17:54:35.723Z,0.97
2018-12-21T17:57:08.885Z,0.80
2018-12-21T17:59:40.495Z,0.83
2018-12-21T18:02:12.518Z,0.73
2018-12-21T18:04:44.329Z,1.03
2018-12-21T18:07:20.398Z,1.30
2018-12-21T18:09:50.025Z,0.67
2018-12-21T18:12:19.510Z,1.10
2018-12-21T18:14:49.150Z,1.30
2018-12-21T18:17:20.484Z,0.90
2018-12-21T18:19:57.179Z,0.60
2018-12-21T18:22:32.966Z,1.20
2018-12-21T18:25:11.909Z,1.00
2018-12-21T18:27:46.025Z,0.80
2018-12-21T18:30:47.933Z,0.83
2018-12-21T18:33:25.491Z,1.07
2018-12-21T18:36:08.331Z,1.70
2018-12-21T18:38:40.767Z,0.70
2018-12-21T18:41:22.730Z,0.90
2018-12-21T18:46:58.899Z,1.37
2018-12-21T18:49:29.125Z,1.00
2018-12-21T18:52:07.774Z,1.20
2018-12-21T18:54:44.756Z,1.10
2018-12-21T18:57:22.563Z,0.90
2018-12-21T18:59:54.649Z,1.07
2018-12-21T19:02:32.680Z,0.83
2018-12-21T19:05:03.400Z,0.87
2018-12-21T19:07:41.783Z,1.30
2018-12-21T19:10:19.079Z,1.10
2018-12-21T19:13:01.374Z,1.03
2018-12-21T19:15:33.702Z,1.20
2018-12-21T19:18:06.934Z,1.30
2018-12-21T19:20:38.038Z,0.97
2018-12-21T19:23:10.393Z,0.97
2018-12-21T19:25:46.347Z,1.00
2018-12-21T19:28:19.333Z,1.30
2018-12-21T19:30:51.579Z,1.00
2018-12-21T19:33:28.909Z,1.30
2018-12-21T19:36:08.244Z,1.27
2018-12-21T19:39:00.681Z,1.00
2018-12-21T19:41:37.657Z,1.10
2018-12-21T19:44:13.560Z,1.40
2018-12-21T19:46:44.798Z,1.00
2018-12-21T19:49:19.913Z,1.40
2018-12-21T19:51:55.076Z,1.30
2018-12-21T19:54:33.695Z,1.10
2018-12-21T19:57:13.242Z,1.20
2018-12-21T19:59:54.321Z,0.93
2018-12-21T20:02:28.155Z,0.97
2018-12-21T20:05:04.546Z,1.17
2018-12-21T20:07:41.356Z,1.37
2018-12-21T20:10:19.676Z,1.10
2018-12-21T20:12:54.411Z,1.30
2018-12-21T20:15:37.279Z,1.20
2018-12-21T20:18:09.281Z,1.13
2018-12-21T20:23:37.022Z,1.07
2018-12-21T20:26:17.160Z,1.37
2018-12-21T20:28:55.257Z,0.90
2018-12-21T20:31:27.130Z,1.00
2018-12-21T20:34:04.663Z,1.00
2018-12-21T20:36:50.650Z,1.20
2018-12-21T20:39:31.910Z,1.20
2018-12-21T20:42:04.722Z,1.13
2018-12-21T20:44:38.077Z,1.20
2018-12-21T20:47:11.405Z,0.90
2018-12-21T20:49:45.884Z,1.13
2018-12-21T20:52:17.006Z,0.93
2018-12-21T20:54:50.023Z,0.80
2018-12-21T20:57:27.615Z,1.17
2018-12-21T20:59:59.638Z,1.20
2018-12-21T21:02:40.451Z,0.90
2018-12-21T21:05:16.436Z,1.10
2018-12-21T21:08:09.167Z,1.17
2018-12-21T21:10:43.024Z,1.00
2018-12-21T21:13:20.012Z,1.57
2018-12-21T21:15:56.179Z,1.20
2018-12-21T21:18:28.104Z,1.00
2018-12-21T21:21:07.680Z,1.50
2018-12-21T21:23:37.460Z,1.50
2018-12-21T21:26:14.971Z,1.10
2018-12-21T21:28:44.843Z,1.40
2018-12-21T21:31:14.907Z,0.97
2018-12-21T21:33:51.678Z,1.47
2018-12-21T21:36:22.968Z,1.10
2018-12-21T21:39:01.547Z,1.07
2018-12-21T21:41:31.593Z,1.30
2018-12-21T21:44:01.248Z,1.40
2018-12-21T21:46:31.744Z,1.13
2018-12-21T21:49:04.693Z,1.40
2018-12-21T21:52:41.576Z,1.13
2018-12-21T21:55:11.204Z,1.40
2018-12-21T21:57:42.930Z,1.30
2018-12-21T22:00:14.507Z,1.07
2018-12-21T22:02:47.631Z,1.10
2018-12-21T22:05:17.205Z,1.00
2018-12-21T22:07:47.362Z,1.57
2018-12-21T22:10:17.050Z,1.20
2018-12-21T22:12:48.957Z,1.27
2018-12-21T22:15:20.549Z,1.57
2018-12-21T22:17:51.767Z,1.30
2018-12-21T22:20:21.849Z,1.57
2018-12-21T22:22:54.539Z,1.20
2018-12-21T22:25:25.662Z,1.50
2018-12-21T22:27:56.006Z,1.43
2018-12-21T22:30:25.389Z,1.40
2018-12-21T22:32:55.732Z,1.30
2018-12-21T22:35:25.932Z,1.33
2018-12-21T22:37:55.605Z,1.30
2018-12-21T22:40:24.915Z,1.23
2018-12-21T22:42:57.010Z,1.40
2018-12-21T22:45:27.027Z,1.30
2018-12-21T22:47:57.630Z,1.00
2018-12-21T22:50:27.441Z,1.30
2018-12-21T22:52:57.361Z,1.20
2018-12-21T22:55:27.248Z,1.60
2018-12-21T22:57:56.960Z,1.30
2018-12-21T23:00:39.999Z,1.10
2018-12-21T23:03:09.359Z,1.47
2018-12-21T23:05:39.566Z,1.20
2018-12-21T23:08:11.497Z,1.20
2018-12-21T23:10:41.418Z,1.27
2018-12-21T23:13:11.831Z,1.30
2018-12-21T23:15:42.005Z,1.50
2018-12-21T23:18:16.773Z,1.60
2018-12-21T23:20:49.663Z,1.60
2018-12-21T23:23:19.957Z,1.30
2018-12-21T23:25:49.612Z,1.40
2018-12-21T23:28:19.712Z,1.40
2018-12-21T23:30:49.067Z,1.47
2018-12-21T23:33:18.462Z,1.23
2018-12-21T23:35:48.326Z,1.20
2018-12-21T23:38:18.004Z,1.30
2018-12-21T23:40:47.278Z,1.47
2018-12-21T23:43:16.585Z,1.27
2018-12-21T23:45:46.781Z,1.30
2018-12-21T23:48:16.293Z,1.17
2018-12-21T23:50:45.883Z,1.40
2018-12-21T23:53:15.860Z,1.17
2018-12-21T23:55:47.789Z,1.10
2018-12-21T23:58:17.994Z,1.60
